sensor_id;sensor_type;location;lat;lon;timestamp;pressure;altitude;pressure_sealevel;temperature;humidity
63347;BME280;49472;49.880;8.650;2022-12-11T00:00:42;99478.28;;;23.27;21.49
63347;BME280;49472;49.880;8.650;2022-12-11T00:03:07;99488.44;;;22.83;22.07
63347;BME280;49472;49.880;8.650;2022-12-11T00:05:33;99490.69;;;22.73;21.95
63347;BME280;49472;49.880;8.650;2022-12-11T00:07:58;99494.31;;;24.00;21.24
63347;BME280;49472;49.880;8.650;2022-12-11T00:10:24;99496.09;;;23.75;21.04
63347;BME280;49472;49.880;8.650;2022-12-11T00:12:49;99495.06;;;22.92;22.21
63347;BME280;49472;49.880;8.650;2022-12-11T00:15:14;99493.13;;;23.26;21.82
63347;BME280;49472;49.880;8.650;2022-12-11T00:17:40;99495.56;;;23.21;21.51
63347;BME280;49472;49.880;8.650;2022-12-11T00:20:06;99493.31;;;23.31;21.59
63347;BME280;49472;49.880;8.650;2022-12-11T00:22:32;99497.16;;;23.22;21.63
63347;BME280;49472;49.880;8.650;2022-12-11T00:24:57;99505.22;;;23.07;22.12
63347;BME280;49472;49.880;8.650;2022-12-11T00:27:23;99502.53;;;23.72;21.46
63347;BME280;49472;49.880;8.650;2022-12-11T00:29:49;99502.31;;;22.77;22.02
63347;BME280;49472;49.880;8.650;2022-12-11T00:32:14;99496.03;;;22.91;21.87
63347;BME280;49472;49.880;8.650;2022-12-11T00:34:39;99499.38;;;22.20;22.67
63347;BME280;49472;49.880;8.650;2022-12-11T00:37:04;99493.31;;;21.86;22.80
63347;BME280;49472;49.880;8.650;2022-12-11T00:39:30;99494.09;;;21.67;23.11
63347;BME280;49472;49.880;8.650;2022-12-11T00:41:55;99501.91;;;22.73;22.51
63347;BME280;49472;49.880;8.650;2022-12-11T00:44:20;99501.34;;;22.65;22.44
63347;BME280;49472;49.880;8.650;2022-12-11T00:46:46;99501.94;;;23.25;21.72
63347;BME280;49472;49.880;8.650;2022-12-11T00:49:11;99502.50;;;22.82;21.85
63347;BME280;49472;49.880;8.650;2022-12-11T00:51:37;99510.16;;;23.67;21.44
63347;BME280;49472;49.880;8.650;2022-12-11T00:54:02;99506.00;;;23.91;21.39
63347;BME280;49472;49.880;8.650;2022-12-11T00:56:28;99510.69;;;23.44;21.90
63347;BME280;49472;49.880;8.650;2022-12-11T00:58:53;99500.28;;;24.08;21.34
63347;BME280;49472;49.880;8.650;2022-12-11T01:01:22;99506.34;;;23.70;21.53
63347;BME280;49472;49.880;8.650;2022-12-11T01:03:47;99500.53;;;23.29;21.94
63347;BME280;49472;49.880;8.650;2022-12-11T01:06:16;99497.44;;;23.84;21.52
63347;BME280;49472;49.880;8.650;2022-12-11T01:08:42;99504.53;;;23.77;21.67
63347;BME280;49472;49.880;8.650;2022-12-11T01:11:10;99508.16;;;24.01;21.33
63347;BME280;49472;49.880;8.650;2022-12-11T01:13:37;99501.25;;;23.43;21.73
63347;BME280;49472;49.880;8.650;2022-12-11T01:16:11;99504.47;;;23.45;22.02
63347;BME280;49472;49.880;8.650;2022-12-11T01:18:37;99506.53;;;23.30;21.77
63347;BME280;49472;49.880;8.650;2022-12-11T01:21:11;99495.81;;;23.13;22.09
63347;BME280;49472;49.880;8.650;2022-12-11T01:23:38;99497.91;;;23.68;21.48
63347;BME280;49472;49.880;8.650;2022-12-11T01:26:12;99496.25;;;23.42;21.87
63347;BME280;49472;49.880;8.650;2022-12-11T01:28:38;99501.56;;;22.50;22.21
63347;BME280;49472;49.880;8.650;2022-12-11T01:31:07;99494.41;;;23.10;22.16
63347;BME280;49472;49.880;8.650;2022-12-11T01:33:33;99488.94;;;22.14;22.66
63347;BME280;49472;49.880;8.650;2022-12-11T01:35:58;99486.50;;;21.92;23.23
63347;BME280;49472;49.880;8.650;2022-12-11T01:38:23;99492.88;;;21.01;23.86
63347;BME280;49472;49.880;8.650;2022-12-11T01:40:49;99489.31;;;21.84;23.60
63347;BME280;49472;49.880;8.650;2022-12-11T01:43:15;99494.66;;;21.62;23.03
63347;BME280;49472;49.880;8.650;2022-12-11T01:45:43;99490.94;;;21.92;23.31
63347;BME280;49472;49.880;8.650;2022-12-11T01:48:19;99494.88;;;21.67;23.50
63347;BME280;49472;49.880;8.650;2022-12-11T01:50:57;99497.91;;;22.78;22.67
63347;BME280;49472;49.880;8.650;2022-12-11T01:53:30;99495.13;;;22.46;23.15
63347;BME280;49472;49.880;8.650;2022-12-11T01:55:57;99497.47;;;22.81;22.66
63347;BME280;49472;49.880;8.650;2022-12-11T01:58:27;99504.38;;;21.27;24.10
63347;BME280;49472;49.880;8.650;2022-12-11T02:00:53;99506.66;;;21.50;23.46
63347;BME280;49472;49.880;8.650;2022-12-11T02:03:19;99494.44;;;23.04;22.58
63347;BME280;49472;49.880;8.650;2022-12-11T02:05:45;99494.25;;;22.99;22.07
63347;BME280;49472;49.880;8.650;2022-12-11T02:08:10;99503.94;;;21.78;23.40
63347;BME280;49472;49.880;8.650;2022-12-11T02:10:53;99500.84;;;21.48;23.72
63347;BME280;49472;49.880;8.650;2022-12-11T02:21:33;99484.31;;;22.56;22.90
63347;BME280;49472;49.880;8.650;2022-12-11T02:24:12;99481.09;;;22.60;22.66
63347;BME280;49472;49.880;8.650;2022-12-11T02:29:37;99496.78;;;22.27;22.99
63347;BME280;49472;49.880;8.650;2022-12-11T02:32:09;99499.56;;;21.31;24.26
63347;BME280;49472;49.880;8.650;2022-12-11T02:37:44;99506.50;;;22.98;22.59
63347;BME280;49472;49.880;8.650;2022-12-11T02:40:12;99512.00;;;23.60;22.21
63347;BME280;49472;49.880;8.650;2022-12-11T02:42:41;99513.38;;;22.52;23.16
63347;BME280;49472;49.880;8.650;2022-12-11T02:45:09;99514.16;;;21.93;23.55
63347;BME280;49472;49.880;8.650;2022-12-11T02:47:36;99504.78;;;22.32;22.72
63347;BME280;49472;49.880;8.650;2022-12-11T02:50:06;99508.69;;;22.81;22.72
63347;BME280;49472;49.880;8.650;2022-12-11T02:52:34;99506.25;;;23.13;22.50
63347;BME280;49472;49.880;8.650;2022-12-11T02:55:02;99502.91;;;23.37;22.25
63347;BME280;49472;49.880;8.650;2022-12-11T02:57:35;99508.75;;;24.03;21.97
63347;BME280;49472;49.880;8.650;2022-12-11T03:00:03;99505.97;;;24.23;21.68
63347;BME280;49472;49.880;8.650;2022-12-11T03:02:29;99507.31;;;24.07;21.96
63347;BME280;49472;49.880;8.650;2022-12-11T03:04:54;99511.19;;;23.66;21.80
63347;BME280;49472;49.880;8.650;2022-12-11T03:07:25;99501.06;;;22.86;22.56
63347;BME280;49472;49.880;8.650;2022-12-11T03:09:51;99504.53;;;23.38;22.51
63347;BME280;49472;49.880;8.650;2022-12-11T03:12:24;99502.81;;;23.51;22.46
63347;BME280;49472;49.880;8.650;2022-12-11T03:14:52;99513.50;;;21.78;23.58
63347;BME280;49472;49.880;8.650;2022-12-11T03:17:22;99506.47;;;21.10;24.63
63347;BME280;49472;49.880;8.650;2022-12-11T03:22:46;99509.28;;;20.17;25.36
63347;BME280;49472;49.880;8.650;2022-12-11T03:25:19;99501.44;;;21.43;24.78
63347;BME280;49472;49.880;8.650;2022-12-11T03:27:57;99498.16;;;22.23;23.55
63347;BME280;49472;49.880;8.650;2022-12-11T03:30:24;99494.31;;;23.30;22.55
63347;BME280;49472;49.880;8.650;2022-12-11T03:33:00;99496.78;;;23.89;22.08
63347;BME280;49472;49.880;8.650;2022-12-11T03:35:40;99498.91;;;24.74;21.33
63347;BME280;49472;49.880;8.650;2022-12-11T03:38:18;99504.53;;;25.07;21.03
63347;BME280;49472;49.880;8.650;2022-12-11T03:40:48;99494.69;;;24.91;21.23
63347;BME280;49472;49.880;8.650;2022-12-11T03:43:16;99498.66;;;24.07;21.63
63347;BME280;49472;49.880;8.650;2022-12-11T03:45:43;99499.22;;;23.13;22.46
63347;BME280;49472;49.880;8.650;2022-12-11T03:48:10;99500.72;;;23.34;22.60
63347;BME280;49472;49.880;8.650;2022-12-11T03:50:38;99498.72;;;22.18;23.48
63347;BME280;49472;49.880;8.650;2022-12-11T03:53:04;99499.16;;;22.35;23.28
63347;BME280;49472;49.880;8.650;2022-12-11T03:55:31;99501.34;;;24.00;22.10
63347;BME280;49472;49.880;8.650;2022-12-11T03:57:58;99496.03;;;24.32;21.59
63347;BME280;49472;49.880;8.650;2022-12-11T04:00:23;99498.31;;;24.53;21.48
63347;BME280;49472;49.880;8.650;2022-12-11T04:02:49;99507.34;;;23.75;22.17
63347;BME280;49472;49.880;8.650;2022-12-11T04:05:34;99497.34;;;24.22;21.61
63347;BME280;49472;49.880;8.650;2022-12-11T04:08:00;99504.97;;;24.49;21.47
63347;BME280;49472;49.880;8.650;2022-12-11T04:10:26;99507.44;;;24.37;21.52
63347;BME280;49472;49.880;8.650;2022-12-11T04:12:51;99497.97;;;24.68;21.35
63347;BME280;49472;49.880;8.650;2022-12-11T04:15:17;99510.16;;;23.67;22.21
63347;BME280;49472;49.880;8.650;2022-12-11T04:17:42;99500.91;;;24.72;21.41
63347;BME280;49472;49.880;8.650;2022-12-11T04:20:26;99498.59;;;24.82;21.32
63347;BME280;49472;49.880;8.650;2022-12-11T04:23:12;99498.66;;;24.32;21.73
63347;BME280;49472;49.880;8.650;2022-12-11T04:28:29;99495.59;;;25.15;21.32
63347;BME280;49472;49.880;8.650;2022-12-11T04:30:54;99503.66;;;25.13;21.38
63347;BME280;49472;49.880;8.650;2022-12-11T04:33:19;99497.78;;;25.00;21.07
63347;BME280;49472;49.880;8.650;2022-12-11T04:35:44;99502.44;;;24.79;21.66
63347;BME280;49472;49.880;8.650;2022-12-11T04:38:10;99500.19;;;24.83;21.58
63347;BME280;49472;49.880;8.650;2022-12-11T04:40:35;99504.25;;;23.85;22.05
63347;BME280;49472;49.880;8.650;2022-12-11T04:43:00;99501.81;;;23.52;22.36
63347;BME280;49472;49.880;8.650;2022-12-11T04:45:26;99501.91;;;24.52;21.68
63347;BME280;49472;49.880;8.650;2022-12-11T04:47:51;99500.97;;;24.21;22.07
63347;BME280;49472;49.880;8.650;2022-12-11T04:50:16;99500.75;;;22.49;23.37
63347;BME280;49472;49.880;8.650;2022-12-11T04:52:42;99505.91;;;22.69;23.06
63347;BME280;49472;49.880;8.650;2022-12-11T04:55:08;99491.22;;;23.02;22.86
63347;BME280;49472;49.880;8.650;2022-12-11T04:57:34;99498.69;;;22.78;23.26
63347;BME280;49472;49.880;8.650;2022-12-11T04:59:59;99490.41;;;22.94;23.28
63347;BME280;49472;49.880;8.650;2022-12-11T05:02:26;99488.56;;;23.15;22.98
63347;BME280;49472;49.880;8.650;2022-12-11T05:04:51;99486.53;;;23.24;22.71
63347;BME280;49472;49.880;8.650;2022-12-11T05:07:16;99484.88;;;23.29;22.59
63347;BME280;49472;49.880;8.650;2022-12-11T05:09:41;99481.91;;;23.26;22.71
63347;BME280;49472;49.880;8.650;2022-12-11T05:12:07;99480.19;;;23.45;23.09
63347;BME280;49472;49.880;8.650;2022-12-11T05:14:33;99483.56;;;22.22;23.75
63347;BME280;49472;49.880;8.650;2022-12-11T05:16:59;99484.88;;;21.78;24.33
63347;BME280;49472;49.880;8.650;2022-12-11T05:19:24;99486.50;;;22.72;23.44
63347;BME280;49472;49.880;8.650;2022-12-11T05:21:50;99490.53;;;20.78;24.77
63347;BME280;49472;49.880;8.650;2022-12-11T05:24:15;99484.50;;;21.87;24.68
63347;BME280;49472;49.880;8.650;2022-12-11T05:26:40;99478.44;;;22.73;23.43
63347;BME280;49472;49.880;8.650;2022-12-11T05:29:06;99468.06;;;22.53;23.68
63347;BME280;49472;49.880;8.650;2022-12-11T05:31:31;99471.00;;;22.84;23.55
63347;BME280;49472;49.880;8.650;2022-12-11T05:33:56;99477.31;;;23.14;23.14
63347;BME280;49472;49.880;8.650;2022-12-11T05:36:23;99475.97;;;23.05;23.18
63347;BME280;49472;49.880;8.650;2022-12-11T05:38:50;99467.50;;;23.16;23.05
63347;BME280;49472;49.880;8.650;2022-12-11T05:41:18;99479.69;;;21.84;24.16
63347;BME280;49472;49.880;8.650;2022-12-11T05:43:43;99476.75;;;21.26;25.04
63347;BME280;49472;49.880;8.650;2022-12-11T05:48:34;99469.91;;;20.42;25.93
63347;BME280;49472;49.880;8.650;2022-12-11T05:51:01;99468.69;;;21.82;24.86
63347;BME280;49472;49.880;8.650;2022-12-11T05:53:28;99468.44;;;21.57;24.61
63347;BME280;49472;49.880;8.650;2022-12-11T05:55:53;99468.13;;;21.19;25.30
63347;BME280;49472;49.880;8.650;2022-12-11T05:58:19;99455.28;;;21.85;24.24
63347;BME280;49472;49.880;8.650;2022-12-11T06:00:46;99460.75;;;22.89;23.50
63347;BME280;49472;49.880;8.650;2022-12-11T06:03:11;99452.84;;;23.54;22.96
63347;BME280;49472;49.880;8.650;2022-12-11T06:05:40;99465.22;;;23.33;23.43
63347;BME280;49472;49.880;8.650;2022-12-11T06:08:06;99461.00;;;23.64;22.95
63347;BME280;49472;49.880;8.650;2022-12-11T06:10:32;99459.97;;;23.72;22.83
63347;BME280;49472;49.880;8.650;2022-12-11T06:12:58;99463.63;;;23.64;22.97
63347;BME280;49472;49.880;8.650;2022-12-11T06:15:23;99454.00;;;23.58;22.83
63347;BME280;49472;49.880;8.650;2022-12-11T06:17:49;99459.50;;;23.43;23.08
63347;BME280;49472;49.880;8.650;2022-12-11T06:20:14;99451.03;;;23.86;22.48
63347;BME280;49472;49.880;8.650;2022-12-11T06:22:39;99456.28;;;24.30;22.10
63347;BME280;49472;49.880;8.650;2022-12-11T06:25:05;99462.19;;;23.36;23.07
63347;BME280;49472;49.880;8.650;2022-12-11T06:27:31;99454.94;;;23.38;23.11
63347;BME280;49472;49.880;8.650;2022-12-11T06:29:56;99461.00;;;23.64;22.78
63347;BME280;49472;49.880;8.650;2022-12-11T06:32:21;99450.25;;;22.10;24.01
63347;BME280;49472;49.880;8.650;2022-12-11T06:34:47;99455.63;;;21.49;24.69
63347;BME280;49472;49.880;8.650;2022-12-11T06:37:12;99449.59;;;22.75;23.46
63347;BME280;49472;49.880;8.650;2022-12-11T06:39:37;99452.47;;;22.47;23.53
63347;BME280;49472;49.880;8.650;2022-12-11T06:42:03;99445.31;;;23.01;23.36
63347;BME280;49472;49.880;8.650;2022-12-11T06:44:28;99455.22;;;23.24;23.26
63347;BME280;49472;49.880;8.650;2022-12-11T06:46:53;99454.69;;;23.47;23.04
63347;BME280;49472;49.880;8.650;2022-12-11T06:49:19;99447.66;;;23.47;22.96
63347;BME280;49472;49.880;8.650;2022-12-11T06:51:44;99449.69;;;22.35;24.04
63347;BME280;49472;49.880;8.650;2022-12-11T06:54:09;99443.69;;;23.06;23.09
63347;BME280;49472;49.880;8.650;2022-12-11T06:56:34;99448.69;;;22.23;23.97
63347;BME280;49472;49.880;8.650;2022-12-11T06:59:00;99446.63;;;22.58;23.51
63347;BME280;49472;49.880;8.650;2022-12-11T07:01:26;99440.88;;;22.29;23.90
63347;BME280;49472;49.880;8.650;2022-12-11T07:03:56;99448.69;;;21.89;24.42
63347;BME280;49472;49.880;8.650;2022-12-11T07:06:23;99445.31;;;21.21;25.03
63347;BME280;49472;49.880;8.650;2022-12-11T07:08:49;99449.66;;;20.03;26.29
63347;BME280;49472;49.880;8.650;2022-12-11T07:11:16;99446.44;;;20.92;25.28
63347;BME280;49472;49.880;8.650;2022-12-11T07:13:42;99449.28;;;21.85;24.32
63347;BME280;49472;49.880;8.650;2022-12-11T07:16:09;99458.97;;;21.30;24.80
63347;BME280;49472;49.880;8.650;2022-12-11T07:18:44;99447.25;;;22.33;24.05
63347;BME280;49472;49.880;8.650;2022-12-11T07:21:11;99448.47;;;22.44;23.99
63347;BME280;49472;49.880;8.650;2022-12-11T07:23:37;99448.28;;;21.93;23.92
63347;BME280;49472;49.880;8.650;2022-12-11T07:26:07;99446.66;;;22.45;24.13
63347;BME280;49472;49.880;8.650;2022-12-11T07:28:34;99440.97;;;23.26;23.21
63347;BME280;49472;49.880;8.650;2022-12-11T07:31:07;99447.53;;;21.24;25.36
63347;BME280;49472;49.880;8.650;2022-12-11T07:33:33;99444.22;;;23.15;23.39
63347;BME280;49472;49.880;8.650;2022-12-11T07:36:04;99455.47;;;21.71;25.02
63347;BME280;49472;49.880;8.650;2022-12-11T07:38:29;99449.41;;;21.43;24.96
63347;BME280;49472;49.880;8.650;2022-12-11T07:40:55;99467.22;;;20.98;25.24
63347;BME280;49472;49.880;8.650;2022-12-11T07:43:20;99474.06;;;21.61;24.84
63347;BME280;49472;49.880;8.650;2022-12-11T07:45:45;99471.34;;;20.79;25.56
63347;BME280;49472;49.880;8.650;2022-12-11T07:48:11;99470.84;;;21.52;24.99
63347;BME280;49472;49.880;8.650;2022-12-11T07:50:37;99472.44;;;20.92;25.41
63347;BME280;49472;49.880;8.650;2022-12-11T07:53:02;99472.75;;;22.96;23.72
63347;BME280;49472;49.880;8.650;2022-12-11T07:55:27;99467.88;;;23.20;23.58
63347;BME280;49472;49.880;8.650;2022-12-11T07:57:53;99474.16;;;23.06;23.23
63347;BME280;49472;49.880;8.650;2022-12-11T08:00:18;99470.44;;;22.62;23.75
63347;BME280;49472;49.880;8.650;2022-12-11T08:02:43;99463.09;;;22.19;24.00
63347;BME280;49472;49.880;8.650;2022-12-11T08:05:09;99464.81;;;22.78;23.91
63347;BME280;49472;49.880;8.650;2022-12-11T08:07:35;99463.91;;;21.86;24.53
63347;BME280;49472;49.880;8.650;2022-12-11T08:10:01;99457.88;;;22.12;24.60
63347;BME280;49472;49.880;8.650;2022-12-11T08:12:26;99469.81;;;20.92;25.59
63347;BME280;49472;49.880;8.650;2022-12-11T08:14:51;99468.91;;;22.21;24.44
63347;BME280;49472;49.880;8.650;2022-12-11T08:17:17;99470.53;;;23.13;23.68
63347;BME280;49472;49.880;8.650;2022-12-11T08:19:42;99474.81;;;23.71;23.18
63347;BME280;49472;49.880;8.650;2022-12-11T08:22:07;99485.13;;;22.43;24.37
63347;BME280;49472;49.880;8.650;2022-12-11T08:24:32;99483.28;;;21.77;25.01
63347;BME280;49472;49.880;8.650;2022-12-11T08:26:58;99498.47;;;20.70;25.66
63347;BME280;49472;49.880;8.650;2022-12-11T08:29:23;99489.00;;;20.91;25.87
63347;BME280;49472;49.880;8.650;2022-12-11T08:31:48;99494.22;;;21.39;25.66
63347;BME280;49472;49.880;8.650;2022-12-11T08:34:14;99492.97;;;20.87;26.03
63347;BME280;49472;49.880;8.650;2022-12-11T08:36:39;99498.50;;;19.99;27.23
63347;BME280;49472;49.880;8.650;2022-12-11T08:39:05;99495.00;;;20.35;26.72
63347;BME280;49472;49.880;8.650;2022-12-11T08:41:30;99493.94;;;20.79;25.77
63347;BME280;49472;49.880;8.650;2022-12-11T08:43:56;99499.28;;;19.93;27.11
63347;BME280;49472;49.880;8.650;2022-12-11T08:46:24;99489.25;;;21.02;26.33
63347;BME280;49472;49.880;8.650;2022-12-11T08:48:50;99487.06;;;21.67;25.01
63347;BME280;49472;49.880;8.650;2022-12-11T08:51:20;99482.38;;;21.30;25.81
63347;BME280;49472;49.880;8.650;2022-12-11T08:53:46;99477.25;;;22.76;23.86
63347;BME280;49472;49.880;8.650;2022-12-11T08:56:14;99475.97;;;23.82;23.12
63347;BME280;49472;49.880;8.650;2022-12-11T08:58:41;99477.56;;;23.06;23.21
63347;BME280;49472;49.880;8.650;2022-12-11T09:01:14;99472.63;;;23.30;23.29
63347;BME280;49472;49.880;8.650;2022-12-11T09:03:41;99479.41;;;22.86;24.06
63347;BME280;49472;49.880;8.650;2022-12-11T09:06:08;99482.47;;;21.08;25.08
63347;BME280;49472;49.880;8.650;2022-12-11T09:08:34;99481.81;;;21.41;24.87
63347;BME280;49472;49.880;8.650;2022-12-11T09:11:11;99480.00;;;20.87;25.60
63347;BME280;49472;49.880;8.650;2022-12-11T09:13:37;99475.28;;;22.65;24.17
63347;BME280;49472;49.880;8.650;2022-12-11T09:16:05;99475.44;;;22.76;23.94
63347;BME280;49472;49.880;8.650;2022-12-11T09:18:30;99474.59;;;20.88;25.23
63347;BME280;49472;49.880;8.650;2022-12-11T09:21:00;99473.44;;;22.79;24.25
63347;BME280;49472;49.880;8.650;2022-12-11T09:23:26;99483.88;;;22.72;24.03
63347;BME280;49472;49.880;8.650;2022-12-11T09:25:52;99481.22;;;23.44;23.56
63347;BME280;49472;49.880;8.650;2022-12-11T09:28:17;99484.72;;;22.52;24.18
63347;BME280;49472;49.880;8.650;2022-12-11T09:30:42;99482.72;;;21.95;24.41
63347;BME280;49472;49.880;8.650;2022-12-11T09:33:08;99487.94;;;21.27;25.03
63347;BME280;49472;49.880;8.650;2022-12-11T09:35:33;99480.72;;;21.83;24.49
63347;BME280;49472;49.880;8.650;2022-12-11T09:37:58;99477.91;;;22.18;24.82
63347;BME280;49472;49.880;8.650;2022-12-11T09:40:23;99468.25;;;22.59;24.24
63347;BME280;49472;49.880;8.650;2022-12-11T09:45:22;99476.63;;;23.39;22.99
63347;BME280;49472;49.880;8.650;2022-12-11T09:47:51;99477.50;;;22.41;24.36
63347;BME280;49472;49.880;8.650;2022-12-11T09:50:22;99467.72;;;22.23;24.89
63347;BME280;49472;49.880;8.650;2022-12-11T09:55:22;99464.63;;;20.98;25.97
63347;BME280;49472;49.880;8.650;2022-12-11T10:00:38;99465.19;;;21.35;25.42
63347;BME280;49472;49.880;8.650;2022-12-11T10:03:12;99467.13;;;21.27;25.82
63347;BME280;49472;49.880;8.650;2022-12-11T10:06:09;99462.75;;;22.93;24.19
63347;BME280;49472;49.880;8.650;2022-12-11T10:11:36;99462.38;;;24.42;22.77
63347;BME280;49472;49.880;8.650;2022-12-11T10:14:26;99467.84;;;23.97;23.07
63347;BME280;49472;49.880;8.650;2022-12-11T10:19:40;99459.41;;;23.95;22.98
63347;BME280;49472;49.880;8.650;2022-12-11T10:22:13;99453.13;;;23.01;23.57
63347;BME280;49472;49.880;8.650;2022-12-11T10:24:44;99445.28;;;24.64;22.34
63347;BME280;49472;49.880;8.650;2022-12-11T10:27:16;99448.72;;;25.13;22.14
63347;BME280;49472;49.880;8.650;2022-12-11T10:29:43;99443.31;;;24.97;22.08
63347;BME280;49472;49.880;8.650;2022-12-11T10:32:20;99441.00;;;25.37;21.84
63347;BME280;49472;49.880;8.650;2022-12-11T10:34:53;99435.19;;;24.86;22.07
63347;BME280;49472;49.880;8.650;2022-12-11T10:37:20;99430.94;;;24.74;22.19
63347;BME280;49472;49.880;8.650;2022-12-11T10:39:46;99431.81;;;24.98;22.03
63347;BME280;49472;49.880;8.650;2022-12-11T10:42:17;99431.41;;;24.82;22.10
63347;BME280;49472;49.880;8.650;2022-12-11T10:44:55;99424.00;;;25.28;22.05
63347;BME280;49472;49.880;8.650;2022-12-11T10:47:20;99424.22;;;25.26;21.43
63347;BME280;49472;49.880;8.650;2022-12-11T10:49:57;99426.66;;;25.40;21.74
63347;BME280;49472;49.880;8.650;2022-12-11T10:55:02;99423.34;;;25.32;21.69
63347;BME280;49472;49.880;8.650;2022-12-11T10:57:33;99419.19;;;25.67;21.48
63347;BME280;49472;49.880;8.650;2022-12-11T11:00:00;99411.38;;;25.25;21.74
63347;BME280;49472;49.880;8.650;2022-12-11T11:02:36;99417.28;;;25.74;21.65
63347;BME280;49472;49.880;8.650;2022-12-11T11:05:13;99411.94;;;25.92;21.05
63347;BME280;49472;49.880;8.650;2022-12-11T11:07:39;99422.34;;;25.15;21.57
63347;BME280;49472;49.880;8.650;2022-12-11T11:12:46;99406.88;;;24.83;21.87
63347;BME280;49472;49.880;8.650;2022-12-11T11:15:16;99417.25;;;23.91;22.60
63347;BME280;49472;49.880;8.650;2022-12-11T11:20:17;99394.03;;;25.54;21.73
63347;BME280;49472;49.880;8.650;2022-12-11T11:22:49;99391.03;;;25.27;21.99
63347;BME280;49472;49.880;8.650;2022-12-11T11:25:18;99398.38;;;25.72;21.42
63347;BME280;49472;49.880;8.650;2022-12-11T11:27:49;99395.22;;;25.28;22.09
63347;BME280;49472;49.880;8.650;2022-12-11T11:30:24;99389.50;;;25.73;21.66
63347;BME280;49472;49.880;8.650;2022-12-11T11:32:54;99388.38;;;26.04;21.34
63347;BME280;49472;49.880;8.650;2022-12-11T11:35:24;99380.81;;;25.49;21.42
63347;BME280;49472;49.880;8.650;2022-12-11T11:38:17;99385.97;;;25.79;21.37
63347;BME280;49472;49.880;8.650;2022-12-11T11:46:02;99373.13;;;25.89;21.32
63347;BME280;49472;49.880;8.650;2022-12-11T11:48:39;99373.44;;;25.81;21.38
63347;BME280;49472;49.880;8.650;2022-12-11T11:51:23;99372.19;;;25.84;20.99
63347;BME280;49472;49.880;8.650;2022-12-11T11:53:54;99374.81;;;25.84;21.44
63347;BME280;49472;49.880;8.650;2022-12-11T11:56:32;99368.50;;;26.44;21.37
63347;BME280;49472;49.880;8.650;2022-12-11T11:59:14;99370.59;;;26.70;21.17
63347;BME280;49472;49.880;8.650;2022-12-11T12:01:43;99380.56;;;25.08;22.09
63347;BME280;49472;49.880;8.650;2022-12-11T12:04:10;99370.25;;;26.26;21.57
63347;BME280;49472;49.880;8.650;2022-12-11T12:12:33;99369.00;;;26.29;21.25
63347;BME280;49472;49.880;8.650;2022-12-11T12:17:54;99368.78;;;26.18;21.00
63347;BME280;49472;49.880;8.650;2022-12-11T12:20:32;99372.97;;;24.77;22.18
63347;BME280;49472;49.880;8.650;2022-12-11T12:28:30;99364.44;;;24.51;22.33
63347;BME280;49472;49.880;8.650;2022-12-11T12:42:32;99350.56;;;25.65;21.52
63347;BME280;49472;49.880;8.650;2022-12-11T12:47:41;99365.56;;;24.00;22.77
63347;BME280;49472;49.880;8.650;2022-12-11T12:50:14;99361.00;;;24.32;22.29
63347;BME280;49472;49.880;8.650;2022-12-11T12:52:40;99368.66;;;23.90;23.11
63347;BME280;49472;49.880;8.650;2022-12-11T12:55:17;99369.44;;;23.40;23.47
63347;BME280;49472;49.880;8.650;2022-12-11T12:57:53;99370.28;;;24.28;22.64
63347;BME280;49472;49.880;8.650;2022-12-11T13:02:56;99367.38;;;24.73;22.41
63347;BME280;49472;49.880;8.650;2022-12-11T13:05:25;99366.44;;;24.12;22.67
63347;BME280;49472;49.880;8.650;2022-12-11T13:07:54;99359.47;;;24.24;22.69
63347;BME280;49472;49.880;8.650;2022-12-11T13:10:29;99362.94;;;24.00;22.97
63347;BME280;49472;49.880;8.650;2022-12-11T13:12:55;99367.41;;;23.74;23.33
63347;BME280;49472;49.880;8.650;2022-12-11T13:17:50;99373.72;;;23.60;23.07
63347;BME280;49472;49.880;8.650;2022-12-11T13:20:21;99368.63;;;24.34;23.01
63347;BME280;49472;49.880;8.650;2022-12-11T13:23:07;99356.50;;;24.76;22.58
63347;BME280;49472;49.880;8.650;2022-12-11T13:25:54;99365.16;;;24.58;22.56
63347;BME280;49472;49.880;8.650;2022-12-11T13:33:42;99364.75;;;25.03;21.95
63347;BME280;49472;49.880;8.650;2022-12-11T13:38:36;99364.88;;;25.27;22.02
63347;BME280;49472;49.880;8.650;2022-12-11T13:41:09;99367.59;;;24.72;22.40
63347;BME280;49472;49.880;8.650;2022-12-11T13:43:37;99367.19;;;24.56;22.82
63347;BME280;49472;49.880;8.650;2022-12-11T13:46:04;99364.00;;;25.15;21.75
63347;BME280;49472;49.880;8.650;2022-12-11T13:48:37;99363.41;;;24.15;22.85
63347;BME280;49472;49.880;8.650;2022-12-11T13:51:03;99354.03;;;24.44;22.69
63347;BME280;49472;49.880;8.650;2022-12-11T13:53:29;99360.38;;;24.55;22.62
63347;BME280;49472;49.880;8.650;2022-12-11T13:56:17;99368.22;;;24.55;22.56
63347;BME280;49472;49.880;8.650;2022-12-11T13:58:43;99362.22;;;24.66;22.44
63347;BME280;49472;49.880;8.650;2022-12-11T14:01:11;99360.00;;;24.52;22.81
63347;BME280;49472;49.880;8.650;2022-12-11T14:03:53;99362.72;;;25.36;21.86
63347;BME280;49472;49.880;8.650;2022-12-11T14:06:19;99366.63;;;25.15;21.88
63347;BME280;49472;49.880;8.650;2022-12-11T14:08:49;99367.56;;;25.86;21.44
63347;BME280;49472;49.880;8.650;2022-12-11T14:11:29;99377.28;;;25.43;21.40
63347;BME280;49472;49.880;8.650;2022-12-11T14:13:58;99374.28;;;25.28;21.83
63347;BME280;49472;49.880;8.650;2022-12-11T14:16:25;99375.16;;;25.52;21.48
63347;BME280;49472;49.880;8.650;2022-12-11T14:18:52;99387.53;;;25.45;21.40
63347;BME280;49472;49.880;8.650;2022-12-11T14:21:23;99383.06;;;25.33;21.53
63347;BME280;49472;49.880;8.650;2022-12-11T14:24:00;99385.38;;;25.53;21.54
63347;BME280;49472;49.880;8.650;2022-12-11T14:26:34;99378.31;;;25.54;21.54
63347;BME280;49472;49.880;8.650;2022-12-11T14:29:03;99393.22;;;25.11;21.59
63347;BME280;49472;49.880;8.650;2022-12-11T14:31:41;99394.34;;;25.34;21.41
63347;BME280;49472;49.880;8.650;2022-12-11T14:34:14;99380.41;;;25.87;21.07
63347;BME280;49472;49.880;8.650;2022-12-11T14:36:42;99388.00;;;25.77;21.26